createdAt,value
2023-01-20T00:02:04.345Z,27.27
2023-01-20T00:04:51.135Z,22.13
2023-01-20T00:07:39.397Z,18.77
2023-01-20T00:10:26.110Z,26.43
2023-01-20T00:13:12.924Z,24.40
2023-01-20T00:15:59.976Z,18.97
2023-01-20T00:18:46.676Z,17.50
2023-01-20T00:21:35.751Z,18.43
2023-01-20T00:24:23.864Z,21.93
2023-01-20T00:27:10.665Z,21.70
2023-01-20T00:29:57.959Z,25.57
2023-01-20T00:32:45.571Z,17.83
2023-01-20T00:35:32.367Z,22.90
2023-01-20T00:38:19.183Z,19.30
2023-01-20T00:41:07.951Z,18.60
2023-01-20T00:43:54.831Z,21.03
2023-01-20T00:46:41.587Z,17.57
2023-01-20T00:49:28.239Z,18.17
2023-01-20T00:52:15.647Z,14.60
2023-01-20T00:55:02.494Z,19.47
2023-01-20T00:57:50.617Z,15.30
2023-01-20T01:00:37.762Z,18.00
2023-01-20T01:03:24.302Z,18.00
2023-01-20T01:06:12.907Z,19.70
2023-01-20T01:08:59.601Z,20.13
2023-01-20T01:11:46.208Z,18.50
2023-01-20T01:14:34.646Z,16.33
2023-01-20T01:17:23.775Z,16.27
2023-01-20T01:20:11.755Z,27.37
2023-01-20T01:22:58.342Z,14.10
2023-01-20T01:25:45.188Z,20.27
2023-01-20T01:28:31.930Z,13.27
2023-01-20T01:31:22.074Z,14.53
2023-01-20T01:34:08.704Z,17.57
2023-01-20T01:36:56.135Z,18.23
2023-01-20T01:39:42.857Z,20.60
2023-01-20T01:42:29.828Z,18.77
2023-01-20T01:45:26.949Z,16.00
2023-01-20T01:48:15.316Z,16.87
2023-01-20T01:51:07.548Z,15.43
2023-01-20T01:53:57.835Z,15.27
2023-01-20T01:56:45.648Z,12.70
2023-01-20T01:59:32.235Z,19.50
2023-01-20T02:02:21.178Z,14.77
2023-01-20T02:05:13.779Z,16.87
2023-01-20T02:08:00.735Z,23.80
2023-01-20T02:10:47.516Z,20.27
2023-01-20T02:13:35.113Z,19.00
2023-01-20T02:16:31.795Z,19.87
2023-01-20T02:19:38.411Z,15.70
2023-01-20T02:22:34.868Z,14.33
2023-01-20T02:25:58.801Z,14.50
2023-01-20T02:29:10.842Z,12.77
2023-01-20T02:32:19.069Z,18.00
2023-01-20T02:35:13.265Z,15.23
2023-01-20T02:38:15.335Z,15.53
2023-01-20T02:41:10.783Z,12.50
2023-01-20T02:44:03.984Z,19.20
2023-01-20T02:46:59.281Z,19.77
2023-01-20T02:49:54.522Z,16.27
2023-01-20T02:52:44.581Z,10.23
2023-01-20T02:55:34.975Z,14.17
2023-01-20T02:58:27.149Z,14.60
2023-01-20T03:01:18.632Z,12.47
2023-01-20T03:04:09.594Z,17.10
2023-01-20T03:06:59.905Z,13.97
2023-01-20T03:09:49.488Z,18.23
2023-01-20T03:12:44.497Z,17.73
2023-01-20T03:15:36.507Z,26.77
2023-01-20T03:18:23.907Z,17.50
2023-01-20T03:21:11.943Z,19.50
2023-01-20T03:24:03.180Z,15.27
2023-01-20T03:26:50.107Z,14.00
2023-01-20T03:29:36.870Z,18.37
2023-01-20T03:32:26.971Z,12.97
2023-01-20T03:35:16.416Z,14.50
2023-01-20T03:38:03.309Z,20.33
2023-01-20T03:41:00.868Z,19.60
2023-01-20T03:43:57.050Z,14.73
2023-01-20T03:46:51.009Z,14.67
2023-01-20T03:49:45.875Z,19.83
2023-01-20T03:52:46.980Z,21.20
2023-01-20T03:55:39.652Z,21.03
2023-01-20T03:58:36.453Z,22.97
2023-01-20T04:01:28.267Z,22.57
2023-01-20T04:04:18.046Z,17.90
2023-01-20T04:07:06.516Z,17.93
2023-01-20T04:09:57.135Z,22.97
2023-01-20T04:12:44.345Z,20.67
2023-01-20T04:15:35.534Z,23.40
2023-01-20T04:18:24.483Z,17.03
2023-01-20T04:21:16.504Z,19.83
2023-01-20T04:24:09.974Z,21.20
2023-01-20T04:26:57.201Z,17.83
2023-01-20T04:29:43.927Z,29.10
2023-01-20T04:32:32.117Z,20.20
2023-01-20T04:35:20.777Z,23.63
2023-01-20T04:38:08.002Z,15.40
2023-01-20T04:40:54.541Z,20.23
2023-01-20T04:43:44.636Z,21.77
2023-01-20T04:46:31.443Z,22.27
2023-01-20T04:49:19.555Z,20.97
2023-01-20T04:52:06.260Z,17.97
2023-01-20T04:54:53.022Z,19.47
2023-01-20T04:57:40.174Z,21.70
2023-01-20T05:00:26.753Z,21.83
2023-01-20T05:03:13.754Z,17.73
2023-01-20T05:06:01.684Z,19.10
2023-01-20T05:08:48.371Z,17.67
2023-01-20T05:11:35.508Z,29.20
2023-01-20T05:14:22.133Z,20.50
2023-01-20T05:17:08.878Z,22.50
2023-01-20T05:19:55.627Z,26.17
2023-01-20T05:22:44.607Z,20.63
2023-01-20T05:25:31.440Z,17.00
2023-01-20T05:28:18.129Z,20.30
2023-01-20T05:31:05.008Z,18.10
2023-01-20T05:33:51.817Z,22.23
2023-01-20T05:36:38.449Z,24.00
2023-01-20T05:39:26.907Z,21.57
2023-01-20T05:42:13.436Z,21.13
2023-01-20T05:45:00.323Z,23.73
2023-01-20T05:47:47.242Z,18.33
2023-01-20T05:50:34.241Z,20.87
2023-01-20T05:53:21.050Z,18.17
2023-01-20T05:56:12.186Z,19.20
2023-01-20T05:58:59.165Z,21.63
2023-01-20T06:01:45.613Z,21.00
2023-01-20T06:04:38.086Z,20.97
2023-01-20T06:07:26.957Z,20.37
2023-01-20T06:10:14.242Z,14.30
2023-01-20T06:13:02.217Z,23.60
2023-01-20T06:15:52.968Z,21.43
2023-01-20T06:18:39.698Z,22.70
2023-01-20T06:21:26.564Z,28.70
2023-01-20T06:24:13.361Z,21.77
2023-01-20T06:27:00.152Z,18.00
2023-01-20T06:29:48.250Z,18.50
2023-01-20T06:32:34.979Z,19.97
2023-01-20T06:35:21.978Z,21.27
2023-01-20T06:38:08.557Z,17.67
2023-01-20T06:40:58.761Z,15.27
2023-01-20T06:43:45.508Z,15.73
2023-01-20T06:46:33.577Z,25.77
2023-01-20T06:49:20.331Z,25.87
2023-01-20T06:52:07.157Z,17.33
2023-01-20T06:54:54.103Z,20.77
2023-01-20T06:57:40.815Z,20.27
2023-01-20T07:00:27.583Z,14.33
2023-01-20T07:03:15.783Z,21.50
2023-01-20T07:06:04.755Z,26.60
2023-01-20T07:08:51.304Z,23.93
2023-01-20T07:11:38.328Z,23.73
2023-01-20T07:14:24.826Z,26.17
2023-01-20T07:17:13.609Z,23.37
2023-01-20T07:20:01.443Z,17.67
2023-01-20T07:22:49.313Z,23.53
2023-01-20T07:25:38.140Z,24.57
2023-01-20T07:28:24.926Z,23.40
2023-01-20T07:31:13.716Z,27.57
2023-01-20T07:34:00.557Z,26.50
2023-01-20T07:36:48.718Z,29.23
2023-01-20T07:39:36.368Z,29.50
2023-01-20T07:42:23.156Z,24.83
2023-01-20T07:45:10.547Z,30.90
2023-01-20T07:47:57.397Z,32.43
2023-01-20T07:50:43.900Z,27.53
2023-01-20T07:53:33.066Z,26.17
2023-01-20T07:56:21.814Z,29.03
2023-01-20T07:59:08.509Z,30.70
2023-01-20T08:01:55.220Z,25.27
2023-01-20T08:04:42.157Z,27.93
2023-01-20T08:07:28.811Z,31.23
2023-01-20T08:10:17.839Z,26.57
2023-01-20T08:13:04.316Z,21.13
2023-01-20T08:15:51.076Z,23.83
2023-01-20T08:18:38.602Z,30.87
2023-01-20T08:21:26.681Z,22.50
2023-01-20T08:24:13.707Z,29.93
2023-01-20T08:27:01.787Z,24.00
2023-01-20T08:29:48.867Z,33.50
2023-01-20T08:32:35.642Z,31.67
2023-01-20T08:35:22.190Z,26.13
2023-01-20T08:38:09.475Z,35.53
2023-01-20T08:40:56.467Z,29.37
2023-01-20T08:43:45.103Z,26.40
2023-01-20T08:46:33.035Z,27.80
2023-01-20T08:49:21.865Z,27.10
2023-01-20T08:52:10.199Z,24.03
2023-01-20T08:54:59.075Z,31.20
2023-01-20T08:57:46.213Z,29.27
2023-01-20T09:00:34.437Z,35.20
2023-01-20T09:03:21.748Z,21.77
2023-01-20T09:06:09.875Z,25.67
2023-01-20T09:08:56.329Z,21.90
2023-01-20T09:11:45.032Z,26.60
2023-01-20T09:14:32.204Z,26.43
2023-01-20T09:17:20.031Z,23.60
2023-01-20T09:20:07.814Z,25.27
2023-01-20T09:22:54.510Z,24.47
2023-01-20T09:25:41.351Z,23.10
2023-01-20T09:28:30.768Z,22.43
2023-01-20T09:31:18.582Z,29.80
2023-01-20T09:34:06.422Z,27.10
2023-01-20T09:36:55.185Z,24.30
2023-01-20T09:39:59.167Z,35.50
2023-01-20T09:43:18.748Z,30.50
2023-01-20T09:46:11.668Z,26.10
2023-01-20T09:49:23.393Z,33.70
2023-01-20T09:52:36.194Z,25.97
2023-01-20T09:55:27.593Z,32.47
2023-01-20T09:58:23.048Z,25.57
2023-01-20T10:01:18.227Z,30.80
2023-01-20T10:04:13.852Z,25.67
2023-01-20T10:07:09.703Z,26.47
2023-01-20T10:10:04.662Z,26.90
2023-01-20T10:12:58.792Z,24.30
2023-01-20T10:15:50.188Z,34.77
2023-01-20T10:18:41.949Z,24.97
2023-01-20T10:21:35.341Z,32.50
2023-01-20T10:24:26.755Z,21.80
2023-01-20T10:27:14.607Z,25.93
2023-01-20T10:30:09.903Z,26.43
2023-01-20T10:33:02.664Z,29.33
2023-01-20T10:35:52.618Z,23.80
2023-01-20T10:38:49.163Z,26.67
2023-01-20T10:41:41.597Z,27.93
2023-01-20T10:44:29.323Z,30.47
2023-01-20T10:47:35.887Z,23.50
2023-01-20T10:50:40.453Z,26.67
2023-01-20T10:53:48.620Z,24.03
2023-01-20T10:56:43.901Z,26.13
2023-01-20T10:59:36.014Z,21.87
2023-01-20T11:02:27.291Z,24.43
2023-01-20T11:05:18.758Z,24.43
2023-01-20T11:08:18.166Z,24.47
2023-01-20T11:11:12.999Z,24.40
2023-01-20T11:14:00.006Z,27.13
2023-01-20T11:16:53.156Z,23.43
2023-01-20T11:19:50.083Z,24.93
2023-01-20T11:22:38.682Z,19.33
2023-01-20T11:25:27.156Z,21.03
2023-01-20T11:28:19.238Z,23.63
2023-01-20T11:31:06.964Z,23.23
2023-01-20T11:34:02.977Z,22.33
2023-01-20T11:36:49.404Z,22.03
2023-01-20T11:39:37.716Z,29.53
2023-01-20T11:42:27.588Z,28.47
2023-01-20T11:45:32.651Z,22.30
2023-01-20T11:48:21.748Z,20.97
2023-01-20T11:51:20.112Z,22.53
2023-01-20T11:54:09.139Z,22.90
2023-01-20T11:57:00.116Z,20.77
2023-01-20T11:59:51.928Z,18.77
2023-01-20T12:02:41.411Z,29.50
2023-01-20T12:05:34.228Z,20.80
2023-01-20T12:08:28.354Z,19.43
2023-01-20T12:11:22.829Z,25.70
2023-01-20T12:14:28.756Z,22.40
2023-01-20T12:17:29.840Z,22.50
2023-01-20T12:20:24.783Z,23.17
2023-01-20T12:23:21.413Z,19.27
2023-01-20T12:26:11.708Z,23.97
2023-01-20T12:29:06.454Z,22.03
2023-01-20T12:31:54.561Z,25.27
2023-01-20T12:34:41.190Z,25.30
2023-01-20T12:37:34.054Z,21.80
2023-01-20T12:40:30.706Z,22.50
2023-01-20T12:43:30.844Z,20.57
2023-01-20T12:46:32.928Z,24.50
2023-01-20T12:49:35.672Z,27.30
2023-01-20T12:52:39.533Z,30.63
2023-01-20T12:55:37.596Z,25.83
2023-01-20T12:58:39.721Z,21.60
2023-01-20T13:01:45.701Z,29.03
2023-01-20T13:04:56.572Z,26.97
2023-01-20T13:07:50.958Z,19.87
2023-01-20T13:10:56.316Z,22.63
2023-01-20T13:14:00.878Z,18.80
2023-01-20T13:16:53.365Z,30.30
2023-01-20T13:19:42.433Z,27.43
2023-01-20T13:22:29.423Z,27.33
2023-01-20T13:25:19.072Z,23.63
2023-01-20T13:28:08.047Z,23.73
2023-01-20T13:30:57.594Z,22.43
2023-01-20T13:33:44.491Z,21.73
2023-01-20T13:36:31.268Z,26.10
2023-01-20T13:39:40.599Z,21.93
2023-01-20T13:42:50.363Z,23.47
2023-01-20T13:45:37.517Z,24.33
2023-01-20T13:48:25.746Z,26.33
2023-01-20T13:51:46.257Z,24.27
2023-01-20T13:54:45.657Z,20.97
2023-01-20T13:57:37.294Z,24.63
2023-01-20T14:00:24.719Z,27.73
2023-01-20T14:03:21.570Z,25.93
2023-01-20T14:06:23.719Z,25.27
2023-01-20T14:09:19.834Z,24.57
2023-01-20T14:12:07.043Z,20.13
2023-01-20T14:14:54.609Z,21.67
2023-01-20T14:17:42.432Z,20.67
2023-01-20T14:20:30.312Z,21.53
2023-01-20T14:23:37.093Z,25.13
2023-01-20T14:26:25.472Z,26.23
2023-01-20T14:29:20.232Z,24.90
2023-01-20T14:32:20.598Z,25.17
2023-01-20T14:35:15.706Z,20.37
2023-01-20T14:38:03.247Z,22.70
2023-01-20T14:40:51.494Z,21.47
2023-01-20T14:43:46.111Z,18.60
2023-01-20T14:46:35.063Z,21.13
2023-01-20T14:49:23.792Z,24.50
2023-01-20T14:52:17.216Z,29.27
2023-01-20T14:55:03.866Z,21.47
2023-01-20T14:57:51.943Z,23.57
2023-01-20T15:00:44.222Z,22.10
2023-01-20T15:03:32.095Z,25.23
2023-01-20T15:06:22.523Z,27.77
2023-01-20T15:09:28.044Z,33.70
2023-01-20T15:12:35.547Z,31.97
2023-01-20T15:15:29.280Z,27.70
2023-01-20T15:18:19.948Z,23.10
2023-01-20T15:21:26.672Z,21.40
2023-01-20T15:24:14.847Z,26.27
2023-01-20T15:27:03.023Z,29.20
2023-01-20T15:30:04.583Z,28.07
2023-01-20T15:32:53.503Z,32.80
2023-01-20T15:35:42.699Z,38.83
2023-01-20T15:38:32.565Z,36.50
2023-01-20T15:41:19.616Z,33.57
2023-01-20T15:44:06.644Z,45.67
2023-01-20T15:46:56.760Z,22.07
2023-01-20T15:49:45.992Z,35.57
2023-01-20T15:52:32.846Z,34.57
2023-01-20T15:55:22.351Z,28.03
2023-01-20T15:58:21.904Z,27.90
2023-01-20T16:01:08.293Z,25.90
2023-01-20T16:03:55.955Z,31.07
2023-01-20T16:06:45.274Z,26.53
2023-01-20T16:09:37.609Z,37.50
2023-01-20T16:12:25.597Z,29.63
2023-01-20T16:15:16.848Z,95.10
2023-01-20T16:18:04.980Z,87.37
2023-01-20T16:20:53.095Z,39.83
2023-01-20T16:23:42.421Z,37.83
2023-01-20T16:26:31.098Z,30.70
2023-01-20T16:29:18.397Z,24.60
2023-01-20T16:32:05.937Z,30.17
2023-01-20T16:34:53.465Z,32.83
2023-01-20T16:37:40.546Z,25.40
2023-01-20T16:40:31.247Z,33.47
2023-01-20T16:43:18.921Z,30.80
2023-01-20T16:46:05.964Z,26.30
2023-01-20T16:48:53.496Z,27.07
2023-01-20T16:51:40.214Z,36.73
2023-01-20T16:54:27.050Z,27.70
2023-01-20T16:57:15.244Z,33.13
2023-01-20T17:00:02.065Z,34.40
2023-01-20T17:02:51.429Z,40.90
2023-01-20T17:05:38.431Z,30.83
2023-01-20T17:08:25.412Z,29.67
2023-01-20T17:11:12.314Z,34.37
2023-01-20T17:14:03.178Z,29.07
2023-01-20T17:16:50.723Z,24.70
2023-01-20T17:19:38.524Z,28.45
2023-01-20T17:22:25.422Z,37.33
2023-01-20T17:25:12.583Z,28.50
2023-01-20T17:27:59.401Z,27.73
2023-01-20T17:30:47.909Z,34.17
2023-01-20T17:33:35.113Z,30.37
2023-01-20T17:36:21.703Z,23.17
2023-01-20T17:39:08.460Z,29.80
2023-01-20T17:41:55.083Z,23.03
2023-01-20T17:44:41.857Z,24.90
2023-01-20T17:47:31.571Z,27.40
2023-01-20T17:50:18.728Z,22.27
2023-01-20T17:53:05.029Z,24.83
2023-01-20T17:55:55.230Z,21.23
2023-01-20T17:58:47.587Z,17.33
2023-01-20T18:01:34.743Z,32.40
2023-01-20T18:04:23.056Z,31.67
2023-01-20T18:07:10.015Z,16.13
2023-01-20T18:09:56.967Z,28.57
2023-01-20T18:12:44.690Z,23.27
2023-01-20T18:15:31.462Z,19.83
2023-01-20T18:18:18.107Z,19.83
2023-01-20T18:21:14.486Z,18.60
2023-01-20T18:24:03.185Z,23.70
2023-01-20T18:26:50.698Z,18.63
2023-01-20T18:29:37.547Z,20.43
2023-01-20T18:32:24.303Z,21.67
2023-01-20T18:35:11.708Z,22.33
2023-01-20T18:38:01.958Z,23.47
2023-01-20T18:40:48.842Z,24.87
2023-01-20T18:43:35.520Z,16.63
2023-01-20T18:46:22.348Z,20.37
2023-01-20T18:49:13.673Z,21.17
2023-01-20T18:52:00.705Z,32.20
2023-01-20T18:54:49.059Z,32.40
2023-01-20T18:57:35.543Z,22.90
2023-01-20T19:00:22.517Z,23.77
2023-01-20T19:03:08.900Z,20.80
2023-01-20T19:05:55.801Z,21.57
2023-01-20T19:08:43.715Z,31.10
2023-01-20T19:11:34.446Z,22.47
2023-01-20T19:14:21.338Z,15.60
2023-01-20T19:17:08.446Z,23.40
2023-01-20T19:19:55.322Z,19.90
2023-01-20T19:22:42.677Z,19.03
2023-01-20T19:25:31.732Z,22.33
2023-01-20T19:28:19.673Z,19.93
2023-01-20T19:31:08.214Z,16.93
2023-01-20T19:33:54.860Z,16.57
2023-01-20T19:36:41.610Z,12.97
2023-01-20T19:39:28.829Z,17.90
2023-01-20T19:42:15.705Z,20.33
2023-01-20T19:45:03.791Z,20.30
2023-01-20T19:47:50.393Z,22.57
2023-01-20T19:50:37.527Z,19.23
2023-01-20T19:53:24.015Z,17.40
2023-01-20T19:56:12.517Z,25.73
2023-01-20T19:59:00.861Z,18.10
2023-01-20T20:01:48.860Z,21.23
2023-01-20T20:04:35.819Z,20.93
2023-01-20T20:07:22.384Z,16.93
2023-01-20T20:10:09.682Z,19.43
2023-01-20T20:12:57.719Z,21.73
2023-01-20T20:15:44.586Z,16.50
2023-01-20T20:18:33.223Z,16.20
2023-01-20T20:21:20.227Z,21.37
2023-01-20T20:24:07.076Z,20.03
2023-01-20T20:26:53.591Z,17.77
2023-01-20T20:29:40.460Z,22.07
2023-01-20T20:32:27.511Z,13.43
2023-01-20T20:35:16.179Z,22.33
2023-01-20T20:38:02.970Z,20.03
2023-01-20T20:40:49.789Z,16.00
2023-01-20T20:43:37.234Z,24.97
2023-01-20T20:46:24.176Z,14.73
2023-01-20T20:49:14.711Z,17.70
2023-01-20T20:52:03.123Z,20.30
2023-01-20T20:54:49.781Z,18.90
2023-01-20T20:57:37.064Z,17.20
2023-01-20T21:00:28.177Z,17.83
2023-01-20T21:03:15.888Z,15.27
2023-01-20T21:06:04.197Z,21.13
2023-01-20T21:08:55.678Z,17.83
2023-01-20T21:11:43.411Z,15.83
2023-01-20T21:14:30.006Z,18.07
2023-01-20T21:17:17.123Z,13.67
2023-01-20T21:20:04.554Z,19.53
2023-01-20T21:22:52.152Z,19.33
2023-01-20T21:25:40.060Z,28.10
2023-01-20T21:28:27.042Z,17.70
2023-01-20T21:31:15.567Z,17.77
2023-01-20T21:34:02.420Z,23.40
2023-01-20T21:36:48.913Z,18.77
2023-01-20T21:39:36.203Z,21.70
2023-01-20T21:42:24.408Z,23.97
2023-01-20T21:45:12.129Z,17.43
2023-01-20T21:48:19.503Z,12.93
2023-01-20T21:51:25.347Z,20.70
2023-01-20T21:54:12.613Z,26.97
2023-01-20T21:57:00.899Z,18.00
2023-01-20T21:59:48.774Z,21.00
2023-01-20T22:02:35.622Z,22.97
2023-01-20T22:05:22.093Z,21.87
2023-01-20T22:08:08.798Z,19.90
2023-01-20T22:10:56.801Z,17.97
2023-01-20T22:13:43.296Z,19.67
2023-01-20T22:16:32.257Z,17.97
2023-01-20T22:19:19.294Z,23.77
2023-01-20T22:22:06.904Z,24.40
2023-01-20T22:24:53.644Z,17.13
2023-01-20T22:27:40.271Z,15.47
2023-01-20T22:30:26.974Z,18.10
2023-01-20T22:33:15.016Z,22.23
2023-01-20T22:36:01.967Z,17.87
2023-01-20T22:38:50.664Z,17.57
2023-01-20T22:41:37.113Z,14.40
2023-01-20T22:44:23.922Z,5.97
2023-01-20T22:47:10.981Z,17.40
2023-01-20T22:49:58.745Z,19.77
2023-01-20T22:52:45.531Z,11.13
2023-01-20T22:55:32.460Z,14.97
2023-01-20T22:58:19.130Z,17.80
2023-01-20T23:01:06.394Z,13.47
2023-01-20T23:03:55.328Z,21.73
2023-01-20T23:06:43.490Z,23.30
2023-01-20T23:09:30.027Z,14.93
2023-01-20T23:12:16.837Z,17.30
2023-01-20T23:15:03.577Z,10.37
2023-01-20T23:17:50.332Z,14.63
2023-01-20T23:20:37.150Z,15.50
2023-01-20T23:23:26.326Z,14.90
2023-01-20T23:26:15.772Z,14.90
2023-01-20T23:29:02.873Z,22.20
2023-01-20T23:31:49.533Z,12.17
2023-01-20T23:34:36.296Z,19.13
2023-01-20T23:37:22.976Z,11.53
2023-01-20T23:40:12.996Z,14.03
2023-01-20T23:42:59.977Z,19.13
2023-01-20T23:45:46.934Z,19.30
2023-01-20T23:48:34.331Z,12.77
2023-01-20T23:51:21.172Z,16.80
2023-01-20T23:54:07.827Z,22.83
2023-01-20T23:56:55.994Z,21.00
2023-01-20T23:59:42.788Z,15.93
